Time;durP1;ratioP1;P1;durP2;ratioP2;P2;SDS_P1;SDS_P2;PMS_P1;PMS_P2;Temp;Humidity;BMP_temperature;BMP_pressure;BME280_temperature;BME280_humidity;BME280_pressure;Samples;Min_cycle;Max_cycle;Signal;HPM_P1;HPM_P2
2022/10/25 04:05:38;;;;;;;1.73;1.63;;;11.70;99.90;;;;;;5084086;22;20225;-65
2022/10/25 04:08:04;;;;;;;2.93;1.73;;;11.70;99.90;;;;;;5014358;28;20760;-68
2022/10/25 04:10:30;;;;;;;3.20;2.07;;;11.70;99.90;;;;;;5032882;28;20180;-65
2022/10/25 04:12:55;;;;;;;2.60;2.40;;;11.70;99.90;;;;;;5032205;28;20674;-66
2022/10/25 04:15:22;;;;;;;2.07;1.50;;;11.70;99.90;;;;;;5014468;28;20201;-65
2022/10/25 04:17:49;;;;;;;1.40;1.30;;;11.80;99.90;;;;;;5012593;28;20184;-67
2022/10/25 04:20:14;;;;;;;1.50;1.40;;;11.80;99.90;;;;;;5011606;28;20184;-67
2022/10/25 04:22:40;;;;;;;3.43;1.80;;;11.80;99.90;;;;;;4994937;28;20943;-65
2022/10/25 04:25:06;;;;;;;2.40;1.47;;;11.80;99.90;;;;;;5012592;28;20674;-65
2022/10/25 04:27:32;;;;;;;2.63;1.70;;;11.80;99.90;;;;;;5012074;28;20239;-66
2022/10/25 04:29:57;;;;;;;1.60;1.50;;;11.80;99.90;;;;;;5012701;28;20784;-66
2022/10/25 04:32:23;;;;;;;2.23;1.50;;;11.80;99.90;;;;;;5011679;28;20173;-65
2022/10/25 04:34:48;;;;;;;3.03;1.87;;;11.90;99.90;;;;;;5010756;28;20731;-66
2022/10/25 04:37:15;;;;;;;3.33;1.70;;;12.00;99.90;;;;;;5012787;28;20540;-65
2022/10/25 04:39:40;;;;;;;2.53;1.80;;;12.00;99.90;;;;;;5011729;28;20240;-66
2022/10/25 04:42:06;;;;;;;2.80;1.93;;;12.10;99.90;;;;;;5012951;28;20409;-65
2022/10/25 04:44:32;;;;;;;1.67;1.57;;;12.00;99.90;;;;;;5011948;28;20201;-65
2022/10/25 04:46:57;;;;;;;2.20;2.00;;;12.00;99.90;;;;;;5012672;28;20212;-65
2022/10/25 04:49:23;;;;;;;1.77;1.63;;;12.00;99.90;;;;;;5012437;28;20260;-68
2022/10/25 04:51:48;;;;;;;2.80;1.50;;;12.00;99.90;;;;;;5013220;28;20177;-65
2022/10/25 04:54:14;;;;;;;1.60;1.50;;;12.00;99.90;;;;;;5011605;28;20303;-67
2022/10/25 04:56:40;;;;;;;1.53;1.40;;;12.00;99.90;;;;;;5012587;28;20165;-66
2022/10/25 04:59:05;;;;;;;1.70;1.60;;;12.10;99.90;;;;;;5011988;28;20204;-66
2022/10/25 05:01:31;;;;;;;2.43;1.57;;;12.10;99.90;;;;;;5011751;28;20165;-67
2022/10/25 05:03:57;;;;;;;1.70;1.60;;;12.10;99.90;;;;;;5015354;28;20196;-65
2022/10/25 05:06:25;;;;;;;4.13;1.83;;;12.10;99.90;;;;;;5015928;28;20600;-67
2022/10/25 05:08:51;;;;;;;2.27;2.10;;;12.10;99.90;;;;;;5015774;28;20226;-65
2022/10/25 05:11:19;;;;;;;1.60;1.50;;;12.10;99.90;;;;;;5016106;28;20446;-67
2022/10/25 05:13:46;;;;;;;1.80;1.70;;;12.00;99.90;;;;;;5015565;28;20494;-66
2022/10/25 05:16:16;;;;;;;2.10;1.90;;;12.00;99.90;;;;;;4998393;28;20173;-66
2022/10/25 05:18:44;;;;;;;1.70;1.60;;;12.00;99.90;;;;;;5015625;28;20422;-66
2022/10/25 05:21:10;;;;;;;1.80;1.70;;;12.00;99.90;;;;;;5015822;28;20399;-65
2022/10/25 05:23:36;;;;;;;2.03;1.30;;;12.00;99.90;;;;;;5014987;28;20445;-65
2022/10/25 05:26:07;;;;;;;1.50;1.40;;;12.00;99.90;;;;;;5015786;28;20416;-65
2022/10/25 05:28:35;;;;;;;2.00;1.50;;;11.90;99.90;;;;;;5015686;28;20172;-65
2022/10/25 05:31:21;;;;;;;2.00;1.90;;;11.90;99.90;;;;;;5015473;28;20418;-67
2022/10/25 05:33:55;;;;;;;1.27;1.25;;;11.80;99.90;;;;;;5014561;28;20864;-67
2022/10/25 05:36:21;;;;;;;2.17;1.45;;;11.80;99.90;;;;;;4997814;28;20182;-66
2022/10/25 05:38:47;;;;;;;2.33;1.80;;;11.80;99.90;;;;;;5014913;28;20164;-66
2022/10/25 05:41:14;;;;;;;2.80;1.60;;;11.80;99.90;;;;;;5015337;28;20851;-64
2022/10/25 05:43:41;;;;;;;1.50;1.40;;;11.80;99.90;;;;;;5014905;28;20476;-66
2022/10/25 05:46:08;;;;;;;2.05;1.52;;;11.80;99.90;;;;;;5015192;28;20311;-66
2022/10/25 05:48:35;;;;;;;2.50;2.30;;;11.80;99.90;;;;;;5014941;28;20181;-66
2022/10/25 05:51:17;;;;;;;1.77;1.67;;;11.80;99.90;;;;;;5013763;28;20423;-67
2022/10/25 05:53:48;;;;;;;1.60;1.50;;;11.90;99.90;;;;;;5014718;28;20211;-65
2022/10/25 05:56:14;;;;;;;1.58;1.50;;;11.90;99.90;;;;;;5015038;28;20408;-67
2022/10/25 05:58:40;;;;;;;1.67;1.57;;;11.90;99.90;;;;;;5014969;28;20225;-65
2022/10/25 06:01:12;;;;;;;1.70;1.60;;;12.00;99.90;;;;;;4997049;28;20907;-65
2022/10/25 06:03:39;;;;;;;5.15;2.22;;;12.00;99.90;;;;;;5014025;28;20413;-65
2022/10/25 06:06:06;;;;;;;2.50;1.43;;;12.00;99.90;;;;;;4997190;28;20239;-67
2022/10/25 06:08:33;;;;;;;4.20;1.90;;;12.10;99.90;;;;;;5014560;28;20414;-64
2022/10/25 06:11:07;;;;;;;2.00;1.63;;;12.10;99.90;;;;;;5015113;28;20404;-65
2022/10/25 06:13:33;;;;;;;2.27;1.57;;;12.10;99.90;;;;;;4996228;28;20467;-66
2022/10/25 06:16:03;;;;;;;3.50;2.83;;;12.10;99.90;;;;;;5014529;28;20869;-66
2022/10/25 06:18:29;;;;;;;2.47;2.20;;;12.10;99.90;;;;;;5015038;28;20395;-66
2022/10/25 06:20:55;;;;;;;1.90;1.80;;;12.10;99.90;;;;;;5014629;28;20755;-67
2022/10/25 06:23:20;;;;;;;3.00;1.60;;;12.20;99.90;;;;;;5014073;28;20185;-66
2022/10/25 06:25:46;;;;;;;1.90;1.70;;;12.20;99.90;;;;;;5014640;28;20188;-66
2022/10/25 06:28:12;;;;;;;2.70;1.73;;;12.20;99.90;;;;;;4997285;28;20198;-66
2022/10/25 06:30:37;;;;;;;2.57;1.97;;;12.30;99.90;;;;;;5014692;28;20454;-66
2022/10/25 06:33:03;;;;;;;2.13;2.03;;;12.30;99.90;;;;;;5014143;28;20249;-66
2022/10/25 06:35:28;;;;;;;2.90;1.80;;;12.30;99.90;;;;;;5014441;28;20193;-65
2022/10/25 06:37:59;;;;;;;2.37;2.17;;;12.30;99.90;;;;;;5013977;28;20177;-66
2022/10/25 06:40:25;;;;;;;1.50;1.47;;;12.30;99.90;;;;;;4986561;28;20171;-66
2022/10/25 06:42:55;;;;;;;2.23;1.40;;;12.30;99.90;;;;;;4998580;28;20445;-66
2022/10/25 06:45:22;;;;;;;2.00;1.47;;;12.30;99.90;;;;;;4994763;28;20207;-65
2022/10/25 06:47:48;;;;;;;2.80;2.10;;;12.40;99.90;;;;;;4977196;28;20415;-65
2022/10/25 06:50:14;;;;;;;1.80;1.57;;;12.40;99.90;;;;;;4998344;28;20427;-65
2022/10/25 06:52:40;;;;;;;2.17;1.97;;;12.40;99.90;;;;;;5013312;28;20211;-65
2022/10/25 06:55:07;;;;;;;1.93;1.83;;;12.50;99.90;;;;;;5014030;28;20204;-65
2022/10/25 06:57:32;;;;;;;5.37;1.87;;;12.50;99.90;;;;;;5014135;28;20447;-64
2022/10/25 07:00:01;;;;;;;4.73;1.87;;;12.60;99.90;;;;;;4996462;28;20940;-66
2022/10/25 07:02:27;;;;;;;3.40;1.83;;;12.60;99.90;;;;;;5013712;28;20193;-67
2022/10/25 07:04:52;;;;;;;3.60;2.90;;;12.70;99.90;;;;;;5013246;28;20494;-65
2022/10/25 07:07:18;;;;;;;2.30;1.80;;;12.90;99.90;;;;;;5013737;28;20169;-65
2022/10/25 07:09:43;;;;;;;2.73;1.77;;;13.10;99.90;;;;;;4996782;28;20206;-65
2022/10/25 07:12:09;;;;;;;7.83;3.53;;;13.30;99.90;;;;;;4996244;28;20170;-65
2022/10/25 07:14:35;;;;;;;2.07;1.97;;;13.40;99.90;;;;;;5013227;28;20217;-65
2022/10/25 07:17:00;;;;;;;2.23;2.03;;;13.50;99.90;;;;;;5013339;28;20261;-65
2022/10/25 07:19:26;;;;;;;1.93;1.77;;;13.80;99.90;;;;;;5013303;28;20209;-65
2022/10/25 07:21:51;;;;;;;6.93;1.80;;;14.20;99.90;;;;;;5006328;28;20639;-65
2022/10/25 07:24:17;;;;;;;2.40;2.20;;;14.60;99.90;;;;;;5006561;28;20552;-66
2022/10/25 07:26:43;;;;;;;0.93;0.93;;;15.00;99.90;;;;;;5007423;28;20294;-65
2022/10/25 07:29:09;;;;;;;1.40;1.30;;;15.30;99.90;;;;;;4960659;28;20181;-65
2022/10/25 07:31:39;;;;;;;1.47;1.37;;;15.50;99.90;;;;;;5004463;28;20426;-65
2022/10/25 07:34:05;;;;;;;1.40;1.30;;;15.60;99.90;;;;;;5012842;28;20466;-65
2022/10/25 07:36:30;;;;;;;1.93;1.40;;;15.60;99.90;;;;;;4972114;28;20428;-65
2022/10/25 07:38:56;;;;;;;0.90;0.90;;;15.70;99.90;;;;;;4972486;28;20182;-65
2022/10/25 07:41:23;;;;;;;1.10;1.10;;;15.70;99.90;;;;;;4972285;28;20187;-65
2022/10/25 07:43:48;;;;;;;3.40;3.03;;;15.90;99.90;;;;;;4971370;28;20200;-65
2022/10/25 07:46:14;;;;;;;2.47;1.63;;;16.50;99.90;;;;;;4972126;28;20423;-65
2022/10/25 07:48:40;;;;;;;1.77;1.07;;;17.30;99.90;;;;;;4972346;28;20532;-64
2022/10/25 07:51:08;;;;;;;1.30;1.20;;;18.20;99.90;;;;;;4980506;28;20172;-67
2022/10/25 07:53:34;;;;;;;2.10;1.53;;;19.20;99.90;;;;;;4975188;28;20418;-68
2022/10/25 07:56:00;;;;;;;1.20;1.10;;;20.10;99.90;;;;;;4959295;28;20510;-66
2022/10/25 07:58:25;;;;;;;0.87;0.80;;;20.80;99.90;;;;;;4985953;28;20540;-66
2022/10/25 08:00:51;;;;;;;3.53;1.20;;;21.30;99.90;;;;;;4955998;28;20191;-66
2022/10/25 08:03:17;;;;;;;1.13;1.03;;;22.00;99.90;;;;;;4971548;28;20185;-66
2022/10/25 08:05:44;;;;;;;3.10;2.30;;;22.60;99.90;;;;;;4971861;28;20271;-66
2022/10/25 08:08:11;;;;;;;3.20;2.47;;;23.30;99.90;;;;;;4972108;28;20612;-66
2022/10/25 08:10:37;;;;;;;2.90;2.60;;;23.80;99.90;;;;;;4972008;28;20414;-67
2022/10/25 08:13:02;;;;;;;1.67;1.57;;;24.30;99.10;;;;;;4976498;28;20517;-66
2022/10/25 08:15:28;;;;;;;1.20;1.10;;;24.70;97.30;;;;;;5011783;28;20554;-69
2022/10/25 08:18:01;;;;;;;1.73;1.20;;;25.20;97.80;;;;;;5012833;28;20634;-66
2022/10/25 08:20:27;;;;;;;2.53;1.30;;;25.60;96.50;;;;;;5013263;28;20171;-65
2022/10/25 08:22:57;;;;;;;2.57;1.37;;;26.00;95.60;;;;;;5012849;28;20392;-67
2022/10/25 08:25:23;;;;;;;0.80;0.80;;;26.10;93.10;;;;;;5013322;28;20464;-65
2022/10/25 08:27:49;;;;;;;2.17;1.17;;;26.10;93.50;;;;;;5012796;28;20564;-66
2022/10/25 08:30:14;;;;;;;1.47;1.20;;;26.10;92.80;;;;;;5013076;28;20754;-66
2022/10/25 08:32:40;;;;;;;1.53;1.20;;;26.20;93.10;;;;;;5012646;28;20206;-66
2022/10/25 08:35:06;;;;;;;0.87;0.80;;;26.30;92.00;;;;;;5013182;28;20674;-66
2022/10/25 08:37:31;;;;;;;1.23;1.13;;;26.40;92.00;;;;;;5016207;28;20222;-66
2022/10/25 08:39:57;;;;;;;1.97;1.13;;;26.50;92.50;;;;;;5016989;28;20171;-66
2022/10/25 08:42:57;;;;;;;2.40;2.17;;;26.60;90.80;;;;;;4998135;28;20191;-66
2022/10/25 08:45:32;;;;;;;4.73;1.60;;;26.50;91.50;;;;;;4979701;28;20841;-66
2022/10/25 08:48:00;;;;;;;1.07;0.97;;;26.70;91.70;;;;;;5016946;28;20500;-66
2022/10/25 08:50:49;;;;;;;1.03;1.03;;;27.00;90.10;;;;;;5016534;28;20392;-66
2022/10/25 08:53:25;;;;;;;1.90;1.03;;;27.20;90.40;;;;;;5015954;28;20420;-65
2022/10/25 08:55:51;;;;;;;0.90;0.90;;;27.30;89.20;;;;;;5016263;28;20489;-66
2022/10/25 08:58:22;;;;;;;1.70;1.27;;;27.40;89.90;;;;;;5016601;28;20513;-66
2022/10/25 09:00:48;;;;;;;1.40;1.20;;;27.50;89.20;;;;;;5016496;28;20301;-65
2022/10/25 09:03:24;;;;;;;0.80;0.80;;;27.80;88.00;;;;;;5015966;28;20516;-65
2022/10/25 09:06:27;;;;;;;2.10;0.93;;;27.80;86.90;;;;;;5016084;28;20607;-66
2022/10/25 09:09:32;;;;;;;1.20;1.10;;;27.80;86.30;;;;;;5015883;28;20747;-65
2022/10/25 09:12:07;;;;;;;3.57;3.27;;;27.80;86.70;;;;;;4998462;28;20498;-66
2022/10/25 09:14:46;;;;;;;3.47;1.87;;;28.00;86.40;;;;;;5014236;28;20461;-67
2022/10/25 09:17:27;;;;;;;1.10;1.10;;;28.20;86.90;;;;;;5015786;28;20485;-66
2022/10/25 09:20:21;;;;;;;2.10;1.20;;;28.40;86.50;;;;;;5015804;28;20406;-69
2022/10/25 09:22:50;;;;;;;2.43;1.40;;;28.80;86.10;;;;;;5015114;28;20537;-67
2022/10/25 09:25:30;;;;;;;2.73;1.40;;;29.20;84.20;;;;;;5015110;28;20415;-67
2022/10/25 09:28:02;;;;;;;1.03;1.00;;;29.30;82.50;;;;;;5015862;28;20463;-67
2022/10/25 09:30:34;;;;;;;5.37;1.10;;;29.10;83.10;;;;;;5015656;28;20414;-67
2022/10/25 09:33:04;;;;;;;1.30;1.20;;;29.00;81.00;;;;;;5015541;28;20535;-66
2022/10/25 09:35:47;;;;;;;0.93;0.90;;;28.70;82.30;;;;;;5015884;28;20425;-66
2022/10/25 09:38:23;;;;;;;1.03;1.00;;;28.50;83.40;;;;;;5015197;28;20774;-66
2022/10/25 09:41:01;;;;;;;1.73;0.97;;;28.40;83.40;;;;;;5015787;28;20406;-66
2022/10/25 09:43:53;;;;;;;1.07;1.00;;;28.20;84.90;;;;;;5015120;28;20379;-66
2022/10/25 09:46:30;;;;;;;1.17;1.00;;;28.10;83.60;;;;;;5006983;28;20422;-66
2022/10/25 09:49:15;;;;;;;1.27;0.80;;;27.90;84.20;;;;;;5014805;28;20376;-66
2022/10/25 09:51:49;;;;;;;2.50;1.10;;;27.70;85.40;;;;;;5015259;28;20377;-65
2022/10/25 09:54:23;;;;;;;0.87;0.87;;;27.40;85.30;;;;;;4995361;28;21064;-66
2022/10/25 09:56:48;;;;;;;1.37;1.27;;;27.30;86.10;;;;;;4995883;28;20385;-66
2022/10/25 09:59:14;;;;;;;3.60;1.10;;;27.10;86.00;;;;;;4995555;28;20384;-66
2022/10/25 10:01:41;;;;;;;1.33;0.97;;;26.80;85.90;;;;;;4995433;28;20206;-66
2022/10/25 10:04:29;;;;;;;1.17;1.00;;;26.50;87.00;;;;;;4995078;28;20763;-66
2022/10/25 10:07:00;;;;;;;0.80;0.80;;;26.30;87.90;;;;;;4999084;28;20742;-66
2022/10/25 10:09:30;;;;;;;0.80;0.80;;;26.00;89.50;;;;;;5015025;28;20756;-66
2022/10/25 10:11:57;;;;;;;1.53;0.90;;;26.00;89.50;;;;;;5015266;28;20892;-66
2022/10/25 10:14:53;;;;;;;2.60;1.03;;;26.10;89.10;;;;;;5014387;28;20461;-65
2022/10/25 10:17:20;;;;;;;2.27;1.20;;;26.00;89.90;;;;;;4977651;28;20388;-66
2022/10/25 10:20:07;;;;;;;1.53;1.13;;;25.70;90.60;;;;;;5014877;28;20413;-66
2022/10/25 10:22:36;;;;;;;1.43;0.90;;;25.50;90.90;;;;;;5014270;28;20802;-71
2022/10/25 10:25:03;;;;;;;1.80;1.10;;;25.40;90.80;;;;;;5011314;28;20434;-65
2022/10/25 10:27:31;;;;;;;1.03;0.90;;;25.40;90.80;;;;;;5003349;28;20407;-66
2022/10/25 10:30:06;;;;;;;1.90;1.07;;;25.40;91.20;;;;;;4995417;28;20374;-65
2022/10/25 10:32:39;;;;;;;3.40;0.80;;;25.20;91.10;;;;;;4994705;28;20406;-65
2022/10/25 10:35:23;;;;;;;1.17;1.07;;;24.90;91.70;;;;;;4994844;28;20426;-65
2022/10/25 10:37:48;;;;;;;1.07;1.00;;;24.80;92.30;;;;;;4993690;28;20400;-64
2022/10/25 10:40:17;;;;;;;2.30;1.00;;;24.80;92.50;;;;;;5014548;28;20376;-65
2022/10/25 10:42:42;;;;;;;1.07;0.80;;;24.80;92.90;;;;;;5013899;28;20270;-65
2022/10/25 10:45:14;;;;;;;3.60;0.80;;;24.80;93.30;;;;;;5014528;28;20846;-66
2022/10/25 10:47:49;;;;;;;1.00;0.83;;;24.70;92.70;;;;;;5014486;28;20191;-65
2022/10/25 10:50:21;;;;;;;1.33;1.10;;;24.30;92.70;;;;;;5014520;28;20459;-65
2022/10/25 10:52:52;;;;;;;1.93;1.20;;;24.20;93.30;;;;;;5007907;28;20829;-65
2022/10/25 10:55:29;;;;;;;3.80;1.40;;;24.00;93.30;;;;;;4996801;28;20413;-64
2022/10/25 10:58:00;;;;;;;1.03;0.93;;;23.90;94.30;;;;;;5010125;28;20399;-68
2022/10/25 11:00:28;;;;;;;1.23;0.70;;;23.40;93.60;;;;;;5013137;28;20428;-67
2022/10/25 11:02:54;;;;;;;2.80;1.10;;;22.80;93.60;;;;;;5013604;28;20892;-67
2022/10/25 11:05:27;;;;;;;1.77;1.10;;;22.20;95.10;;;;;;5014050;28;20420;-68
2022/10/25 11:07:54;;;;;;;1.00;1.00;;;21.80;95.70;;;;;;5014080;28;20178;-68
2022/10/25 11:10:23;;;;;;;1.00;1.00;;;21.40;96.50;;;;;;5014194;28;20410;-67
2022/10/25 11:13:11;;;;;;;2.90;2.10;;;21.10;96.50;;;;;;5013159;28;20440;-66
2022/10/25 11:15:52;;;;;;;4.37;2.30;;;20.70;97.30;;;;;;5013890;28;20801;-69
2022/10/25 11:18:24;;;;;;;2.80;1.10;;;20.50;97.80;;;;;;5014214;28;20461;-69
2022/10/25 11:20:53;;;;;;;2.10;1.60;;;20.30;98.30;;;;;;5013943;28;20421;-68
2022/10/25 11:23:53;;;;;;;1.23;0.93;;;20.20;97.90;;;;;;5013305;28;20478;-68
2022/10/25 11:26:34;;;;;;;1.60;1.00;;;20.00;98.50;;;;;;5013578;28;20538;-69
2022/10/25 11:29:03;;;;;;;0.90;0.90;;;19.90;98.80;;;;;;5013872;28;20489;-70
2022/10/25 11:31:56;;;;;;;0.83;0.83;;;19.90;99.80;;;;;;5013636;28;20375;-70
2022/10/25 11:34:38;;;;;;;1.00;1.00;;;19.90;99.00;;;;;;5013058;28;20431;-66
2022/10/25 11:37:28;;;;;;;1.83;1.27;;;19.80;98.80;;;;;;5013606;28;20886;-71
2022/10/25 11:40:20;;;;;;;1.63;1.13;;;19.70;99.10;;;;;;5013585;28;20405;-68
2022/10/25 11:42:58;;;;;;;2.20;1.60;;;19.70;99.40;;;;;;4993572;28;20414;-70
2022/10/25 11:45:31;;;;;;;1.27;1.20;;;19.70;99.90;;;;;;4993875;28;20427;-72
2022/10/25 11:48:14;;;;;;;0.70;0.70;;;19.80;99.90;;;;;;4992580;28;20426;-68
2022/10/25 11:50:51;;;;;;;1.00;1.00;;;19.80;99.80;;;;;;5029056;28;20412;-67
2022/10/25 11:53:23;;;;;;;0.97;0.97;;;20.00;99.90;;;;;;5032592;28;20524;-69
2022/10/25 11:56:06;;;;;;;1.43;0.90;;;20.00;98.70;;;;;;5024089;28;20421;-66
2022/10/25 11:59:15;;;;;;;1.03;1.03;;;20.10;98.40;;;;;;5013123;28;20438;-65
2022/10/25 12:02:09;;;;;;;1.53;0.67;;;20.10;98.40;;;;;;4995092;28;20484;-66
2022/10/25 12:05:05;;;;;;;1.03;0.70;;;20.10;98.50;;;;;;5012729;28;20438;-65
2022/10/25 12:07:59;;;;;;;0.93;0.83;;;20.00;99.10;;;;;;4979513;28;20434;-66
2022/10/25 12:10:34;;;;;;;1.00;0.90;;;20.00;99.30;;;;;;4917717;29;20547;-66
2022/10/25 12:13:09;;;;;;;2.20;0.67;;;20.00;98.90;;;;;;4937314;29;20532;-65
2022/10/25 12:15:43;;;;;;;1.70;1.10;;;20.10;98.70;;;;;;4921106;29;20436;-65
2022/10/25 12:18:18;;;;;;;0.87;0.87;;;20.10;98.80;;;;;;4921521;29;20422;-64
2022/10/25 12:20:46;;;;;;;0.90;0.90;;;20.10;99.50;;;;;;4937212;29;20807;-66
2022/10/25 12:23:16;;;;;;;1.10;0.90;;;20.10;99.90;;;;;;4921227;29;20425;-65
2022/10/25 12:25:53;;;;;;;0.70;0.70;;;20.20;99.90;;;;;;4937476;29;20542;-66
2022/10/25 12:28:41;;;;;;;2.33;1.43;;;20.20;99.90;;;;;;4937408;29;20404;-65
2022/10/25 12:31:17;;;;;;;2.60;1.07;;;20.20;99.90;;;;;;4937511;29;20396;-65
2022/10/25 12:33:55;;;;;;;1.37;1.20;;;20.20;99.90;;;;;;4890245;29;20476;-65
2022/10/25 12:37:01;;;;;;;3.03;1.33;;;19.80;99.90;;;;;;4922520;29;20433;-65
2022/10/25 12:39:40;;;;;;;3.93;1.17;;;19.60;99.90;;;;;;4937295;29;20455;-67
2022/10/25 12:42:22;;;;;;;1.27;1.17;;;19.50;99.90;;;;;;4937168;29;20745;-66
2022/10/25 12:45:03;;;;;;;2.63;1.20;;;19.40;99.90;;;;;;4936789;29;20494;-65
2022/10/25 12:47:35;;;;;;;0.97;0.97;;;19.30;99.90;;;;;;4966062;28;20731;-65
2022/10/25 12:50:34;;;;;;;0.93;0.93;;;19.30;99.90;;;;;;4998310;28;20828;-65
2022/10/25 12:53:25;;;;;;;1.60;1.17;;;19.30;99.90;;;;;;5015274;28;20472;-66
2022/10/25 12:56:16;;;;;;;2.53;1.10;;;19.20;99.90;;;;;;5014602;28;20373;-67
2022/10/25 12:59:02;;;;;;;1.10;0.93;;;19.00;99.90;;;;;;5014679;28;20408;-66
2022/10/25 13:01:54;;;;;;;2.23;1.20;;;19.00;99.90;;;;;;5014744;28;20406;-66
2022/10/25 13:04:30;;;;;;;1.43;1.03;;;19.00;99.90;;;;;;5014447;28;20479;-67
2022/10/25 13:06:57;;;;;;;1.33;1.23;;;19.00;99.90;;;;;;4996810;28;20528;-69
2022/10/25 13:09:30;;;;;;;0.90;0.90;;;19.00;99.90;;;;;;5016326;28;20400;-66
2022/10/25 13:12:25;;;;;;;3.90;1.30;;;19.10;99.90;;;;;;5016030;28;20460;-66
2022/10/25 13:14:56;;;;;;;1.10;1.00;;;19.20;99.90;;;;;;4998545;28;20454;-65
2022/10/25 13:17:21;;;;;;;5.13;1.40;;;19.20;99.90;;;;;;5016177;28;20510;-65
2022/10/25 13:19:48;;;;;;;3.00;1.47;;;19.20;99.90;;;;;;5016074;28;20514;-65
2022/10/25 13:22:34;;;;;;;2.03;1.30;;;19.20;99.90;;;;;;5015234;28;20250;-65
2022/10/25 13:25:01;;;;;;;1.80;1.40;;;19.20;99.90;;;;;;5024257;28;20423;-65
2022/10/25 13:27:33;;;;;;;1.80;1.27;;;19.10;99.90;;;;;;5016094;28;20465;-65
2022/10/25 13:30:05;;;;;;;1.20;1.13;;;18.90;99.90;;;;;;5016539;28;20398;-66
2022/10/25 13:32:36;;;;;;;1.03;0.93;;;18.80;99.90;;;;;;5014242;28;20466;-67
2022/10/25 13:35:22;;;;;;;1.37;1.27;;;18.70;99.90;;;;;;5016170;28;20426;-65
2022/10/25 13:37:51;;;;;;;1.73;1.00;;;18.60;99.90;;;;;;5015827;28;20402;-65
2022/10/25 13:40:25;;;;;;;0.73;0.73;;;18.50;99.90;;;;;;5015380;28;20437;-65
2022/10/25 13:43:05;;;;;;;1.77;1.10;;;18.50;99.90;;;;;;5015430;28;20398;-66
2022/10/25 13:45:37;;;;;;;1.23;1.10;;;18.60;99.90;;;;;;5015518;28;20429;-64
2022/10/25 13:48:12;;;;;;;1.13;1.03;;;18.60;99.90;;;;;;5015823;28;20401;-65
2022/10/25 13:50:47;;;;;;;3.93;1.37;;;18.60;99.90;;;;;;5014732;28;20433;-65
2022/10/25 13:53:22;;;;;;;1.03;1.03;;;18.60;99.90;;;;;;5014971;28;20532;-65
2022/10/25 13:56:02;;;;;;;2.00;1.10;;;18.60;99.90;;;;;;5015256;28;20432;-65
2022/10/25 13:58:28;;;;;;;0.90;0.80;;;18.70;99.90;;;;;;5015256;28;20402;-65
2022/10/25 14:00:55;;;;;;;2.30;1.20;;;18.70;99.90;;;;;;5015434;28;20444;-65
2022/10/25 14:03:25;;;;;;;0.97;0.70;;;18.70;99.90;;;;;;5014890;28;20179;-65
2022/10/25 14:05:53;;;;;;;1.10;1.00;;;18.70;99.90;;;;;;5015108;28;20426;-64
2022/10/25 14:08:37;;;;;;;2.20;1.03;;;18.70;99.90;;;;;;5015111;28;20429;-64
2022/10/25 14:11:12;;;;;;;2.37;1.43;;;18.80;99.90;;;;;;5010310;28;20426;-64
2022/10/25 14:14:13;;;;;;;4.53;1.73;;;18.80;99.90;;;;;;5014413;28;20465;-65
2022/10/25 14:17:12;;;;;;;4.50;1.07;;;18.70;99.90;;;;;;5013771;28;20937;-65
2022/10/25 14:19:59;;;;;;;1.90;0.83;;;18.70;99.90;;;;;;5015283;28;20462;-65
2022/10/25 14:22:42;;;;;;;2.50;1.30;;;18.60;99.90;;;;;;5014652;28;20438;-73
2022/10/25 14:25:20;;;;;;;1.33;1.10;;;18.50;99.90;;;;;;5014760;28;20444;-65
2022/10/25 14:27:45;;;;;;;1.30;1.20;;;18.50;99.90;;;;;;5015076;28;20405;-65
2022/10/25 14:30:28;;;;;;;2.67;1.20;;;18.40;99.90;;;;;;5014916;28;20402;-65
2022/10/25 14:33:03;;;;;;;2.20;1.10;;;18.40;99.90;;;;;;5014482;28;20657;-65
2022/10/25 14:36:09;;;;;;;1.40;1.03;;;18.40;99.90;;;;;;5014292;28;20429;-65
2022/10/25 14:38:48;;;;;;;3.00;1.10;;;18.40;99.90;;;;;;5013586;28;20429;-65
2022/10/25 14:41:20;;;;;;;1.30;1.20;;;18.40;99.90;;;;;;5014580;28;20900;-65
2022/10/25 14:43:46;;;;;;;1.30;0.97;;;18.40;99.90;;;;;;5013916;28;20447;-65
2022/10/25 14:46:15;;;;;;;1.13;1.13;;;18.40;99.90;;;;;;5014490;28;20410;-65
2022/10/25 14:48:45;;;;;;;1.70;1.23;;;18.40;99.90;;;;;;5013903;28;20187;-65
2022/10/25 14:51:28;;;;;;;1.43;1.13;;;18.30;99.90;;;;;;5014459;28;20408;-64
2022/10/25 14:54:11;;;;;;;1.90;0.83;;;18.20;99.90;;;;;;4996299;28;20462;-65
2022/10/25 14:56:37;;;;;;;1.20;1.10;;;18.20;99.90;;;;;;5014266;28;20402;-65
2022/10/25 14:59:06;;;;;;;1.00;1.00;;;18.10;99.90;;;;;;4996484;28;20413;-65
2022/10/25 15:01:32;;;;;;;1.40;1.00;;;18.10;99.90;;;;;;5013965;28;20416;-66
2022/10/25 15:03:59;;;;;;;1.17;1.07;;;18.10;99.90;;;;;;5013597;28;20517;-65
2022/10/25 15:06:28;;;;;;;1.20;1.10;;;18.10;99.90;;;;;;5013932;28;20425;-65
2022/10/25 15:08:57;;;;;;;1.27;1.10;;;18.00;99.90;;;;;;4996407;28;20408;-65
2022/10/25 15:11:23;;;;;;;1.30;1.20;;;18.00;99.90;;;;;;4996909;28;20410;-65
2022/10/25 15:13:50;;;;;;;1.23;1.03;;;18.00;99.90;;;;;;5013674;28;20465;-66
2022/10/25 15:16:37;;;;;;;2.20;1.03;;;18.00;99.90;;;;;;5013719;28;20171;-65
2022/10/25 15:19:14;;;;;;;1.33;1.30;;;18.00;99.90;;;;;;5014084;28;20830;-65
2022/10/25 15:21:50;;;;;;;3.23;2.20;;;18.00;99.90;;;;;;5013794;28;20453;-65
2022/10/25 15:24:20;;;;;;;1.07;1.03;;;17.90;99.90;;;;;;4995935;28;20426;-66
2022/10/25 15:27:04;;;;;;;4.83;1.30;;;17.80;99.90;;;;;;5013819;28;20770;-66
2022/10/25 15:29:39;;;;;;;1.43;1.33;;;17.70;99.90;;;;;;5013657;28;20421;-65
2022/10/25 15:32:10;;;;;;;1.57;1.47;;;17.70;99.90;;;;;;5013267;28;20417;-66
2022/10/25 15:34:35;;;;;;;1.57;1.40;;;17.70;99.90;;;;;;5012456;28;20944;-65
2022/10/25 15:37:03;;;;;;;1.00;1.00;;;17.60;99.90;;;;;;5013400;28;20485;-65
2022/10/25 15:39:31;;;;;;;1.33;1.13;;;17.60;99.90;;;;;;5013536;28;20170;-65
2022/10/25 15:41:57;;;;;;;1.80;1.60;;;17.60;99.90;;;;;;5013555;28;20429;-65
2022/10/25 15:44:22;;;;;;;3.77;1.90;;;17.50;99.90;;;;;;5013212;28;21024;-65
2022/10/25 15:46:48;;;;;;;1.30;1.30;;;17.50;99.90;;;;;;5012645;28;20422;-65
2022/10/25 15:49:14;;;;;;;2.23;1.53;;;17.40;99.90;;;;;;4995145;28;20189;-68
2022/10/25 15:51:43;;;;;;;4.03;1.70;;;17.30;99.90;;;;;;4994099;28;20974;-65
2022/10/25 15:54:18;;;;;;;1.80;1.70;;;17.30;99.90;;;;;;4993161;28;20986;-66
2022/10/25 15:56:44;;;;;;;4.70;1.47;;;17.20;99.90;;;;;;4993571;28;20462;-65
2022/10/25 15:59:10;;;;;;;1.27;1.20;;;17.20;99.90;;;;;;4993552;28;20435;-65
2022/10/25 16:01:39;;;;;;;1.60;1.50;;;17.10;99.90;;;;;;5006818;28;20420;-65
2022/10/25 16:04:05;;;;;;;1.80;1.57;;;17.10;99.90;;;;;;5012833;28;20409;-65
2022/10/25 16:06:31;;;;;;;2.00;1.90;;;17.00;99.90;;;;;;5012984;28;20471;-66
2022/10/25 16:08:56;;;;;;;1.33;1.33;;;16.90;99.90;;;;;;5013148;28;20235;-66
2022/10/25 16:11:22;;;;;;;2.60;1.50;;;16.90;99.90;;;;;;5013036;28;20577;-65
2022/10/25 16:13:51;;;;;;;2.37;1.67;;;16.80;99.90;;;;;;5004155;28;20203;-65
2022/10/25 16:16:25;;;;;;;1.20;1.20;;;16.70;99.90;;;;;;4985425;28;20418;-66
2022/10/25 16:18:52;;;;;;;1.77;1.60;;;16.60;99.90;;;;;;5003651;28;20415;-66
2022/10/25 16:21:19;;;;;;;1.47;1.37;;;16.60;99.90;;;;;;4984433;28;20420;-64
2022/10/25 16:23:46;;;;;;;1.80;1.20;;;16.50;99.90;;;;;;5002046;28;20432;-65
2022/10/25 16:26:41;;;;;;;1.57;1.20;;;16.40;99.90;;;;;;4985775;28;20419;-64
2022/10/25 16:29:16;;;;;;;2.53;1.60;;;16.40;99.90;;;;;;4996002;28;20414;-66
2022/10/25 16:31:42;;;;;;;2.93;1.80;;;16.30;99.90;;;;;;5002134;28;20794;-63
2022/10/25 16:34:08;;;;;;;3.30;1.50;;;16.20;99.90;;;;;;4983757;28;20461;-65
2022/10/25 16:36:34;;;;;;;2.27;1.80;;;16.20;99.90;;;;;;5003653;28;20410;-66
2022/10/25 16:38:59;;;;;;;1.90;1.80;;;16.10;99.90;;;;;;4984667;28;20433;-64
2022/10/25 16:41:30;;;;;;;4.23;2.97;;;16.00;99.90;;;;;;5001935;28;20175;-67
2022/10/25 16:43:59;;;;;;;2.60;2.40;;;15.90;99.90;;;;;;5001196;28;20196;-67
2022/10/25 16:46:25;;;;;;;5.03;1.80;;;15.80;99.90;;;;;;5004346;28;20414;-66
2022/10/25 16:48:51;;;;;;;4.47;2.60;;;15.70;99.90;;;;;;5012852;28;20418;-67
2022/10/25 16:51:17;;;;;;;5.23;2.13;;;15.60;99.90;;;;;;5012742;28;20413;-67
2022/10/25 16:53:45;;;;;;;2.37;2.17;;;15.50;99.90;;;;;;5012348;28;20280;-65
2022/10/25 16:56:11;;;;;;;3.10;2.80;;;15.40;99.90;;;;;;5012510;28;20475;-65
2022/10/25 16:58:38;;;;;;;2.73;1.83;;;15.30;99.90;;;;;;5015924;28;20820;-66
2022/10/25 17:01:14;;;;;;;1.60;1.50;;;15.20;99.90;;;;;;5016220;28;20171;-65
2022/10/25 17:03:42;;;;;;;2.33;1.73;;;15.10;99.90;;;;;;5016007;28;20428;-65
2022/10/25 17:06:08;;;;;;;4.40;2.30;;;15.00;99.90;;;;;;5015979;28;20454;-66
2022/10/25 17:08:33;;;;;;;4.70;3.00;;;14.90;99.90;;;;;;5016077;28;20426;-70
2022/10/25 17:10:59;;;;;;;2.13;1.97;;;14.80;99.90;;;;;;5016116;28;20241;-71
2022/10/25 17:13:25;;;;;;;2.80;1.83;;;14.80;99.90;;;;;;5015696;28;20678;-65
2022/10/25 17:15:50;;;;;;;2.93;2.20;;;14.70;99.90;;;;;;5016223;28;20166;-66
2022/10/25 17:18:19;;;;;;;3.27;2.03;;;14.60;99.90;;;;;;5016156;28;20241;-64